Time;durP1;ratioP1;P1;durP2;ratioP2;P2;SDS_P1;SDS_P2;PMS_P1;PMS_P2;Temp;Humidity;BMP_temperature;BMP_pressure;BME280_temperature;BME280_humidity;BME280_pressure;Samples;Min_cycle;Max_cycle;Signal;HPM_P1;HPM_P2
2021/01/09 00:00:10;;;;;;;113.22;50.15;;;;;;;-1.10;87.52;97989.25;5092380;28;20093;-77
2021/01/09 00:02:56;;;;;;;112.65;49.90;;;;;;;-1.23;88.25;97982.75;5092534;28;20044;-77
2021/01/09 00:05:21;;;;;;;116.10;49.85;;;;;;;-1.24;89.11;97986.22;5091200;28;20384;-78
2021/01/09 00:07:47;;;;;;;101.90;46.30;;;;;;;-1.31;88.83;97985.53;5091635;28;20056;-78
2021/01/09 00:10:13;;;;;;;111.63;50.35;;;;;;;-1.28;89.24;97980.31;5090831;28;20063;-78
2021/01/09 00:12:39;;;;;;;111.03;49.47;;;;;;;-1.20;89.89;97983.53;5091741;28;20483;-77
2021/01/09 00:15:06;;;;;;;99.75;48.00;;;;;;;-1.31;90.48;97981.22;5091860;28;20071;-77
2021/01/09 00:17:32;;;;;;;99.18;48.38;;;;;;;-1.47;91.44;97982.47;5091804;28;20100;-78
2021/01/09 00:19:59;;;;;;;95.85;47.45;;;;;;;-1.18;91.19;97988.63;5092062;28;20123;-78
2021/01/09 00:22:25;;;;;;;92.45;44.60;;;;;;;-1.22;90.87;97980.16;5091704;28;20483;-78
2021/01/09 00:24:50;;;;;;;89.35;43.53;;;;;;;-1.06;89.76;97975.44;5091717;28;20395;-77
2021/01/09 00:27:16;;;;;;;90.65;45.45;;;;;;;-1.20;90.62;97980.94;5092129;28;20120;-79
2021/01/09 00:29:43;;;;;;;86.93;43.88;;;;;;;-1.21;90.60;97986.97;5091910;28;20480;-78
2021/01/09 00:32:12;;;;;;;86.45;43.45;;;;;;;-1.09;89.91;97976.34;5091928;28;20040;-77
2021/01/09 00:34:39;;;;;;;87.47;42.60;;;;;;;-1.20;89.81;97977.53;5092780;28;20100;-77
2021/01/09 00:37:04;;;;;;;86.88;44.40;;;;;;;-1.09;90.20;97971.22;5095123;28;20040;-77
2021/01/09 00:39:30;;;;;;;88.35;42.85;;;;;;;-1.28;90.04;97985.47;5094582;28;20048;-78
2021/01/09 00:42:00;;;;;;;89.38;44.20;;;;;;;-1.43;90.78;97981.53;5095474;28;20048;-78
2021/01/09 00:44:28;;;;;;;88.95;44.80;;;;;;;-1.23;89.96;97980.19;5095285;28;20048;-78
2021/01/09 00:46:55;;;;;;;90.15;44.58;;;;;;;-1.48;91.84;97985.97;5095354;28;20114;-78
2021/01/09 00:49:22;;;;;;;88.13;44.70;;;;;;;-1.28;91.84;97983.72;5095101;28;20071;-80
2021/01/09 00:51:48;;;;;;;96.70;44.08;;;;;;;-1.31;91.03;97982.97;5095281;28;20491;-78
2021/01/09 00:54:14;;;;;;;96.10;47.92;;;;;;;-1.34;91.65;97990.75;5095426;28;20442;-78
2021/01/09 00:56:40;;;;;;;90.90;44.03;;;;;;;-1.29;90.23;97991.47;5095070;28;20063;-78
2021/01/09 00:59:06;;;;;;;99.25;47.17;;;;;;;-1.29;91.04;97991.47;5095528;28;20064;-79
2021/01/09 01:01:33;;;;;;;98.53;46.70;;;;;;;-1.48;92.36;97991.94;5090209;28;20049;-78
2021/01/09 01:03:59;;;;;;;98.00;46.35;;;;;;;-1.41;92.78;97986.63;5075258;28;20102;-79
2021/01/09 01:06:25;;;;;;;100.47;48.58;;;;;;;-1.37;92.54;97986.53;5074337;28;20455;-78
2021/01/09 01:08:52;;;;;;;95.78;45.67;;;;;;;-1.10;90.46;97989.25;5078805;28;20044;-78
2021/01/09 01:11:29;;;;;;;100.85;47.42;;;;;;;-1.32;91.98;97989.81;5094600;28;20090;-78
2021/01/09 01:13:56;;;;;;;97.70;47.88;;;;;;;-1.00;91.91;97992.47;5095103;28;20495;-77
2021/01/09 01:16:23;;;;;;;94.22;44.63;;;;;;;-1.26;91.27;97989.66;5093564;28;20124;-79
2021/01/09 01:18:50;;;;;;;92.45;45.55;;;;;;;-1.43;93.71;97996.13;5094599;28;20048;-78
2021/01/09 01:21:18;;;;;;;90.93;45.85;;;;;;;-1.13;92.01;97991.91;5094898;28;20135;-78
2021/01/09 01:23:44;;;;;;;91.13;43.58;;;;;;;-0.93;88.98;97991.38;5094682;28;20699;-79
2021/01/09 01:26:10;;;;;;;95.47;44.17;;;;;;;-1.08;91.30;97990.91;5095079;28;20359;-78
2021/01/09 01:28:37;;;;;;;95.57;47.30;;;;;;;-1.41;92.41;97987.47;5094199;28;20048;-78
2021/01/09 01:31:03;;;;;;;97.60;48.47;;;;;;;-1.18;92.67;97996.34;5089790;28;20434;-77
2021/01/09 01:33:29;;;;;;;98.25;47.38;;;;;;;-1.24;92.00;97987.03;5073958;28;20411;-78
2021/01/09 01:35:56;;;;;;;94.18;47.35;;;;;;;-1.38;93.92;97992.53;5074492;28;20045;-78
2021/01/09 01:38:22;;;;;;;93.38;46.22;;;;;;;-1.48;93.37;97986.78;5073985;28;20051;-80
2021/01/09 01:40:48;;;;;;;92.50;46.05;;;;;;;-1.17;91.57;97988.59;5089624;28;20074;-78
2021/01/09 01:43:14;;;;;;;93.03;46.75;;;;;;;-1.53;93.97;97991.22;5094422;28;20117;-79
2021/01/09 01:45:41;;;;;;;99.00;47.15;;;;;;;-1.10;92.41;97987.56;5093288;28;20491;-79
2021/01/09 01:48:09;;;;;;;94.13;46.58;;;;;;;-1.39;93.88;97988.31;5092821;28;20108;-79
2021/01/09 01:50:37;;;;;;;97.28;46.45;;;;;;;-1.44;94.29;97984.97;5093807;28;20052;-79
2021/01/09 01:53:03;;;;;;;90.10;45.72;;;;;;;-1.21;92.10;97989.53;5093164;28;20064;-80
2021/01/09 01:55:30;;;;;;;94.20;46.90;;;;;;;-1.38;95.61;97989.97;5093839;28;20154;-79
2021/01/09 01:57:56;;;;;;;99.55;48.40;;;;;;;-1.33;95.21;97988.16;5092649;28;20132;-79
2021/01/09 02:00:24;;;;;;;92.30;45.28;;;;;;;-1.17;92.81;97987.75;5094236;28;20096;-78
2021/01/09 02:02:51;;;;;;;94.25;47.60;;;;;;;-1.39;95.21;97993.44;5081905;28;20036;-78
2021/01/09 02:05:22;;;;;;;94.88;47.60;;;;;;;-1.53;96.16;97988.63;5082514;28;20051;-79
2021/01/09 02:07:52;;;;;;;89.25;45.65;;;;;;;-1.58;97.11;97993.03;5073525;28;20044;-79
2021/01/09 02:10:21;;;;;;;95.55;46.35;;;;;;;-1.34;95.20;97990.75;5075428;28;20473;-80
2021/01/09 02:12:53;;;;;;;90.10;43.92;;;;;;;-1.17;92.45;97993.72;5093156;28;20089;-80
2021/01/09 02:15:19;;;;;;;104.75;51.45;;;;;;;-1.53;96.00;97991.22;5093724;28;20194;-79
2021/01/09 02:17:45;;;;;;;107.78;51.97;;;;;;;-1.63;98.65;97995.72;5093609;28;20036;-79
2021/01/09 02:20:12;;;;;;;98.53;51.00;;;;;;;-1.49;98.27;97995.38;5093242;28;20048;-80
2021/01/09 02:22:45;;;;;;;102.53;52.75;;;;;;;-1.69;98.55;97995.84;5093328;28;20036;-79
2021/01/09 02:25:11;;;;;;;100.88;51.90;;;;;;;-1.71;100.00;97999.38;5093511;28;20087;-79
2021/01/09 02:27:38;;;;;;;100.28;50.38;;;;;;;-1.72;100.00;97987.38;5093051;28;20036;-79
2021/01/09 02:30:18;;;;;;;87.97;46.67;;;;;;;-1.64;100.00;97999.19;5093420;28;20131;-79
2021/01/09 02:33:00;;;;;;;98.30;48.70;;;;;;;-1.54;99.92;97997.22;5093865;28;20066;-79
2021/01/09 02:35:28;;;;;;;93.68;46.35;;;;;;;-1.58;99.88;97990.47;5093670;28;20044;-80
2021/01/09 02:37:55;;;;;;;87.68;44.53;;;;;;;-1.67;99.55;97982.97;5092529;28;20036;-80
2021/01/09 02:40:21;;;;;;;87.60;46.75;;;;;;;-1.72;98.85;97995.09;5093451;28;20040;-79
2021/01/09 02:42:47;;;;;;;88.10;43.03;;;;;;;-1.47;97.38;97991.06;5092745;28;20048;-79
2021/01/09 02:45:14;;;;;;;84.63;42.47;;;;;;;-1.62;98.80;97984.56;5093353;28;20048;-79
2021/01/09 02:47:40;;;;;;;85.60;44.33;;;;;;;-1.51;98.70;97988.59;5091490;28;20040;-79
2021/01/09 02:50:10;;;;;;;82.03;42.47;;;;;;;-1.37;97.20;97990.84;5092903;28;20056;-78
2021/01/09 02:52:39;;;;;;;78.38;39.45;;;;;;;-1.52;96.97;97986.91;5107909;28;20082;-78
2021/01/09 02:55:06;;;;;;;72.78;38.17;;;;;;;-1.68;96.89;97983.88;5091966;28;20510;-79
2021/01/09 02:57:32;;;;;;;75.38;39.22;;;;;;;-1.47;96.78;97980.78;5091716;28;20113;-80
2021/01/09 02:59:58;;;;;;;74.03;39.03;;;;;;;-1.49;96.39;97989.41;5087807;28;20040;-79
2021/01/09 03:02:23;;;;;;;78.72;41.85;;;;;;;-1.57;97.47;97988.75;5075024;28;20135;-79
2021/01/09 03:04:49;;;;;;;84.60;41.97;;;;;;;-1.60;98.48;97993.97;5092333;28;20032;-79
2021/01/09 03:07:15;;;;;;;87.25;44.70;;;;;;;-1.74;99.17;97994.28;5092818;28;20128;-79
2021/01/09 03:09:40;;;;;;;77.28;40.65;;;;;;;-1.61;99.01;97987.97;5092415;28;20036;-79
2021/01/09 03:12:07;;;;;;;92.50;46.90;;;;;;;-1.83;99.94;98003.06;5092685;28;20079;-79
2021/01/09 03:14:33;;;;;;;85.75;46.50;;;;;;;-1.78;100.00;97995.25;5092241;28;20046;-79
2021/01/09 03:16:59;;;;;;;83.43;43.17;;;;;;;-1.26;97.77;97996.53;5091204;28;20040;-78
2021/01/09 03:19:25;;;;;;;80.88;42.85;;;;;;;-1.33;95.42;97988.16;5092481;28;20075;-79
2021/01/09 03:21:51;;;;;;;83.78;43.88;;;;;;;-1.22;96.13;97999.88;5091519;28;20502;-79
2021/01/09 03:24:16;;;;;;;82.63;41.95;;;;;;;-1.06;93.95;97992.63;5093312;28;20036;-78
2021/01/09 03:26:42;;;;;;;83.20;45.95;;;;;;;-1.28;95.00;98001.72;5092020;28;20040;-80
2021/01/09 03:29:08;;;;;;;87.05;47.42;;;;;;;-1.23;96.21;98004.19;5091412;28;20042;-79
2021/01/09 03:31:34;;;;;;;87.90;46.53;;;;;;;-1.52;97.33;98003.16;5092071;28;20048;-77
2021/01/09 03:34:00;;;;;;;92.38;49.47;;;;;;;-1.65;99.07;98002.63;5092308;28;20089;-77
2021/01/09 03:36:25;;;;;;;84.05;45.45;;;;;;;-1.41;97.90;98004.63;5092584;28;20070;-77
2021/01/09 03:38:51;;;;;;;85.28;45.25;;;;;;;-1.26;97.59;98010.22;5091765;28;20126;-77
2021/01/09 03:41:17;;;;;;;79.63;42.75;;;;;;;-1.43;95.73;98014.97;5092326;28;20062;-78
2021/01/09 03:43:43;;;;;;;84.25;45.20;;;;;;;-1.22;95.97;98016.16;5092203;28;20044;-77
2021/01/09 03:46:09;;;;;;;84.43;45.42;;;;;;;-1.37;96.17;98019.13;5092103;28;20127;-78
2021/01/09 03:48:35;;;;;;;86.97;48.88;;;;;;;-1.54;98.07;98015.22;5091875;28;20522;-79
2021/01/09 03:51:00;;;;;;;90.60;50.05;;;;;;;-1.33;97.63;98018.13;5091600;28;20100;-78
2021/01/09 03:53:26;;;;;;;90.75;51.38;;;;;;;-1.40;97.82;98016.63;5092013;28;20100;-78
2021/01/09 03:55:52;;;;;;;94.68;50.75;;;;;;;-1.58;98.73;98011.03;5091947;28;20752;-77
2021/01/09 03:58:18;;;;;;;89.43;47.92;;;;;;;-1.16;96.70;98021.16;5092094;28;20174;-78
2021/01/09 04:00:44;;;;;;;77.88;44.80;;;;;;;-1.19;94.64;98018.66;5091764;28;20055;-78
2021/01/09 04:03:10;;;;;;;85.43;48.33;;;;;;;-1.24;95.50;98028.19;5092516;28;20474;-77
2021/01/09 04:05:35;;;;;;;92.60;48.85;;;;;;;-1.54;98.71;98024.66;5091664;28;20111;-79
2021/01/09 04:08:01;;;;;;;93.00;51.00;;;;;;;-1.62;98.73;98025.69;5092191;28;20132;-78
2021/01/09 04:10:27;;;;;;;89.90;47.20;;;;;;;-1.68;99.35;98018.13;5094874;28;20048;-77
2021/01/09 04:12:53;;;;;;;84.47;46.45;;;;;;;-1.40;98.15;98027.75;5095706;28;20117;-77
2021/01/09 04:15:18;;;;;;;87.97;46.20;;;;;;;-1.24;97.26;98029.94;5096116;28;20399;-77
2021/01/09 04:17:44;;;;;;;80.25;42.47;;;;;;;-1.18;94.03;98019.50;5095410;28;20400;-78
2021/01/09 04:20:10;;;;;;;80.50;43.75;;;;;;;-1.21;95.64;98027.28;5111716;28;20088;-78
2021/01/09 04:22:36;;;;;;;84.40;43.15;;;;;;;-1.28;95.56;98017.16;5093658;28;20043;-80
2021/01/09 04:25:03;;;;;;;85.47;46.35;;;;;;;-1.51;97.88;98028.00;5094918;28;20559;-78
2021/01/09 04:27:28;;;;;;;87.13;45.38;;;;;;;-1.54;98.57;98025.50;5096239;28;20119;-78
2021/01/09 04:29:54;;;;;;;80.72;45.20;;;;;;;-1.54;98.44;98022.94;5094063;28;20134;-78
2021/01/09 04:32:20;;;;;;;88.53;45.63;;;;;;;-1.71;100.00;98023.31;5095660;28;20059;-78
2021/01/09 04:34:47;;;;;;;86.40;44.53;;;;;;;-1.60;99.13;98035.94;5095239;28;20064;-77
2021/01/09 04:37:14;;;;;;;87.00;47.08;;;;;;;-1.63;100.00;98028.28;5095421;28;20441;-77
2021/01/09 04:39:41;;;;;;;89.07;44.97;;;;;;;-1.60;98.68;98030.78;5095492;28;20096;-78
2021/01/09 04:42:07;;;;;;;86.80;45.40;;;;;;;-1.45;98.16;98032.16;5095870;28;20040;-78
2021/01/09 04:44:33;;;;;;;89.72;48.78;;;;;;;-1.67;98.60;98029.22;5095351;28;20040;-78
2021/01/09 04:47:02;;;;;;;92.32;47.38;;;;;;;-1.63;99.45;98041.13;5094835;28;20666;-77
2021/01/09 04:49:29;;;;;;;91.53;48.80;;;;;;;-1.64;98.75;98048.03;5095618;28;20052;-78
2021/01/09 04:51:57;;;;;;;87.20;48.47;;;;;;;-1.70;100.00;98040.44;5094817;28;20399;-78
2021/01/09 04:54:24;;;;;;;93.90;48.05;;;;;;;-1.75;100.00;98039.69;5095656;28;20093;-77
2021/01/09 04:56:52;;;;;;;83.82;48.05;;;;;;;-1.70;100.00;98047.28;5095019;28;20087;-78
2021/01/09 04:59:19;;;;;;;85.55;48.58;;;;;;;-1.59;99.85;98053.06;5094142;28;20377;-77
2021/01/09 05:01:47;;;;;;;94.75;50.50;;;;;;;-1.64;100.00;98060.88;5094669;28;20081;-77
2021/01/09 05:04:14;;;;;;;89.63;49.78;;;;;;;-1.69;100.00;98052.41;5090465;28;20439;-77
2021/01/09 05:06:42;;;;;;;91.07;48.00;;;;;;;-1.70;100.00;98061.00;5087863;28;20077;-78
2021/01/09 05:09:09;;;;;;;92.47;52.28;;;;;;;-1.76;100.00;98057.72;5095353;28;20502;-78
2021/01/09 05:11:36;;;;;;;95.68;53.25;;;;;;;-1.49;100.00;98057.06;5093736;28;20048;-77
2021/01/09 05:14:06;;;;;;;95.28;52.00;;;;;;;-1.65;100.00;98060.91;5094505;28;20129;-78
2021/01/09 05:16:33;;;;;;;97.15;52.78;;;;;;;-1.74;100.00;98064.53;5095049;28;20090;-77
2021/01/09 05:19:00;;;;;;;98.65;52.47;;;;;;;-1.73;100.00;98067.91;5093708;28;20123;-77
2021/01/09 05:21:27;;;;;;;98.15;55.40;;;;;;;-1.77;100.00;98072.28;5094774;28;20043;-77
2021/01/09 05:23:59;;;;;;;112.97;57.85;;;;;;;-1.70;100.00;98073.00;5093295;28;20077;-77
2021/01/09 05:26:25;;;;;;;100.93;54.58;;;;;;;-1.80;100.00;98070.63;5094722;28;20082;-77
2021/01/09 05:28:58;;;;;;;94.40;51.97;;;;;;;-1.50;99.80;98067.41;5094587;28;20040;-78
2021/01/09 05:31:25;;;;;;;100.78;54.47;;;;;;;-1.61;98.91;98077.94;5094474;28;20032;-77
2021/01/09 05:33:52;;;;;;;105.55;55.20;;;;;;;-1.74;100.00;98071.41;5093990;28;20487;-77
2021/01/09 05:36:18;;;;;;;93.65;49.50;;;;;;;-1.71;99.07;98074.72;5094424;28;20056;-79
2021/01/09 05:38:46;;;;;;;91.38;51.13;;;;;;;-1.70;100.00;98075.56;5094234;28;20055;-79
2021/01/09 05:41:22;;;;;;;88.60;48.92;;;;;;;-1.66;98.51;98080.59;5094198;28;20048;-79
2021/01/09 05:43:57;;;;;;;93.72;51.13;;;;;;;-1.89;99.90;98075.97;5094426;28;20119;-80
2021/01/09 05:46:23;;;;;;;94.05;51.70;;;;;;;-1.91;100.00;98088.00;5094327;28;20048;-79
2021/01/09 05:48:49;;;;;;;95.35;53.03;;;;;;;-1.93;99.88;98084.63;5092361;28;20105;-77
2021/01/09 05:51:17;;;;;;;101.30;55.03;;;;;;;-1.83;100.00;98098.97;5093285;28;20132;-78
2021/01/09 05:53:45;;;;;;;100.57;56.42;;;;;;;-1.98;100.00;98086.44;5094071;28;20044;-77
2021/01/09 05:56:13;;;;;;;101.00;54.35;;;;;;;-1.91;100.00;98100.88;5094071;28;20512;-78
2021/01/09 05:58:39;;;;;;;101.50;54.38;;;;;;;-1.94;100.00;98106.06;5094237;28;20052;-80
2021/01/09 06:01:10;;;;;;;99.43;52.38;;;;;;;-1.57;99.70;98105.25;5092527;28;20044;-76
2021/01/09 06:04:04;;;;;;;98.03;51.28;;;;;;;-1.72;99.96;98113.31;5094034;28;20041;-77
2021/01/09 06:06:45;;;;;;;90.35;48.42;;;;;;;-1.50;98.05;98114.53;5093668;28;20372;-72
2021/01/09 06:09:21;;;;;;;92.60;50.40;;;;;;;-1.69;99.03;98114.09;5108854;28;20048;-74
2021/01/09 06:11:48;;;;;;;90.03;49.20;;;;;;;-1.56;98.05;98122.38;5093497;28;20055;-75
2021/01/09 06:14:14;;;;;;;95.47;49.22;;;;;;;-1.60;97.71;98119.91;5094194;28;20078;-75
2021/01/09 06:16:42;;;;;;;85.25;46.47;;;;;;;-1.53;97.34;98124.91;5093838;28;20071;-75
2021/01/09 06:19:09;;;;;;;90.18;48.45;;;;;;;-1.66;98.69;98129.44;5093446;28;20040;-75
2021/01/09 06:21:36;;;;;;;82.00;44.67;;;;;;;-1.34;94.96;98135.59;5092351;28;20056;-75
2021/01/09 06:24:04;;;;;;;83.55;45.13;;;;;;;-1.49;95.50;98134.22;5093361;28;20048;-75
2021/01/09 06:26:31;;;;;;;86.78;46.42;;;;;;;-1.55;96.78;98136.91;5092807;28;20049;-75
2021/01/09 06:28:59;;;;;;;92.97;48.40;;;;;;;-1.80;99.39;98141.75;5092258;28;20488;-75
2021/01/09 06:31:27;;;;;;;85.43;46.45;;;;;;;-1.76;99.57;98147.66;5088373;28;20068;-75
2021/01/09 06:33:55;;;;;;;89.60;46.03;;;;;;;-1.70;99.51;98143.25;5072235;28;20127;-75
2021/01/09 06:36:23;;;;;;;82.43;44.03;;;;;;;-1.62;99.14;98150.81;5074359;28;20048;-75
2021/01/09 06:38:52;;;;;;;85.00;44.95;;;;;;;-1.60;97.99;98156.75;5089209;28;20048;-76
2021/01/09 06:41:20;;;;;;;85.45;44.65;;;;;;;-1.62;98.21;98156.78;5092378;28;20048;-73
2021/01/09 06:43:50;;;;;;;86.43;44.70;;;;;;;-1.69;98.14;98160.34;5092913;28;20543;-78
2021/01/09 06:46:28;;;;;;;85.90;44.17;;;;;;;-1.70;99.00;98152.66;5093352;28;20055;-75
2021/01/09 06:48:54;;;;;;;86.75;45.42;;;;;;;-1.63;98.43;98159.38;5092528;28;20055;-75
2021/01/09 06:51:35;;;;;;;76.03;39.67;;;;;;;-1.35;95.08;98161.34;5092189;28;20092;-75
2021/01/09 06:54:15;;;;;;;82.90;41.67;;;;;;;-1.58;96.93;98160.13;5092314;28;20051;-75
2021/01/09 06:56:46;;;;;;;80.28;41.33;;;;;;;-1.54;95.89;98163.50;5093059;28;20066;-73
2021/01/09 06:59:32;;;;;;;77.63;40.53;;;;;;;-1.31;93.21;98168.13;5092630;28;20123;-75
2021/01/09 07:02:28;;;;;;;74.43;42.03;;;;;;;-1.41;93.64;98167.47;5092498;28;20040;-75
2021/01/09 07:05:19;;;;;;;83.82;45.17;;;;;;;-1.40;93.56;98169.16;5091677;28;20130;-75
2021/01/09 07:07:57;;;;;;;81.35;43.90;;;;;;;-1.04;91.36;98179.50;5072399;28;20048;-75
2021/01/09 07:10:29;;;;;;;85.72;46.05;;;;;;;-1.16;91.25;98175.50;5071594;28;20049;-75
2021/01/09 07:13:02;;;;;;;94.90;50.05;;;;;;;-1.29;91.15;98180.06;5072281;28;20049;-75
2021/01/09 07:15:31;;;;;;;97.53;47.67;;;;;;;-1.42;92.06;98188.94;5072829;28;20045;-75
2021/01/09 07:18:02;;;;;;;96.75;49.10;;;;;;;-1.08;90.47;98185.59;5071745;28;20045;-75
2021/01/09 07:20:33;;;;;;;92.47;46.80;;;;;;;-1.25;91.58;98193.72;5072697;28;20086;-75
2021/01/09 07:23:02;;;;;;;99.40;49.50;;;;;;;-1.16;92.68;98197.78;5072183;28;20102;-75
2021/01/09 07:25:34;;;;;;;97.68;49.50;;;;;;;-1.23;90.49;98204.81;5072585;28;20511;-75
2021/01/09 07:28:03;;;;;;;96.38;49.00;;;;;;;-1.17;90.29;98204.66;5075733;28;20471;-75
2021/01/09 07:30:30;;;;;;;96.93;50.35;;;;;;;-1.50;93.23;98208.81;5092484;28;20127;-74
2021/01/09 07:32:57;;;;;;;99.55;49.50;;;;;;;-1.16;90.50;98208.94;5092108;28;20048;-74
2021/01/09 07:35:25;;;;;;;100.47;51.90;;;;;;;-1.37;93.12;98207.66;5092763;28;20162;-74
2021/01/09 07:37:55;;;;;;;105.53;51.78;;;;;;;-1.33;94.82;98211.00;5092019;28;20044;-78
2021/01/09 07:40:22;;;;;;;99.50;49.55;;;;;;;-1.16;93.95;98210.63;5092218;28;20134;-74
2021/01/09 07:42:49;;;;;;;93.40;46.83;;;;;;;-1.38;94.24;98221.41;5092278;28;20096;-75
2021/01/09 07:45:20;;;;;;;89.82;44.05;;;;;;;-1.29;92.82;98216.06;5091959;28;20468;-75
2021/01/09 07:47:49;;;;;;;83.57;44.00;;;;;;;-1.17;93.86;98219.25;5106117;28;20076;-74
2021/01/09 07:50:18;;;;;;;81.00;43.67;;;;;;;-0.95;89.64;98215.31;5091505;28;20048;-72
2021/01/09 07:52:46;;;;;;;82.25;44.45;;;;;;;-1.11;90.31;98221.69;5089740;28;20040;-75
2021/01/09 07:55:46;;;;;;;80.63;43.83;;;;;;;-1.14;91.61;98230.31;5087012;28;20100;-75
2021/01/09 07:58:13;;;;;;;84.03;44.38;;;;;;;-1.18;91.78;98217.56;5070393;28;20526;-73
2021/01/09 08:00:42;;;;;;;82.28;46.28;;;;;;;-1.29;91.95;98218.63;5071803;28;20057;-73
2021/01/09 08:03:09;;;;;;;86.18;46.08;;;;;;;-0.95;90.57;98220.44;5071423;28;20051;-74
2021/01/09 08:05:36;;;;;;;86.00;46.65;;;;;;;-0.75;87.59;98214.84;5072204;28;20040;-73
2021/01/09 08:08:02;;;;;;;84.78;45.95;;;;;;;-0.92;87.39;98219.53;5087024;28;20519;-72
2021/01/09 08:10:29;;;;;;;87.90;47.75;;;;;;;-0.84;87.94;98220.19;5092003;28;20075;-74
2021/01/09 08:13:02;;;;;;;89.07;48.70;;;;;;;-0.44;87.26;98223.53;5091418;28;20432;-76
2021/01/09 08:15:30;;;;;;;99.43;50.03;;;;;;;-0.45;86.78;98214.13;5090245;28;20131;-72
2021/01/09 08:18:00;;;;;;;92.55;50.35;;;;;;;-0.40;85.48;98230.31;5053481;28;20451;-76
2021/01/09 08:20:27;;;;;;;94.97;50.65;;;;;;;-0.53;86.56;98227.19;5080573;28;20121;-72
2021/01/09 08:23:06;;;;;;;91.07;50.35;;;;;;;-0.47;85.17;98227.03;5090005;28;20411;-80
2021/01/09 08:25:38;;;;;;;96.75;50.92;;;;;;;-0.56;87.34;98240.13;5089969;28;20036;-72
2021/01/09 08:28:05;;;;;;;97.18;51.35;;;;;;;-0.65;88.50;98233.50;5085536;28;20491;-72
2021/01/09 08:30:34;;;;;;;98.95;52.38;;;;;;;-0.38;86.13;98233.69;5091395;28;20052;-73
2021/01/09 08:33:10;;;;;;;89.68;48.42;;;;;;;-0.45;87.04;98238.16;5102525;28;20194;-73
2021/01/09 08:35:40;;;;;;;96.22;50.30;;;;;;;-0.30;85.54;98233.50;5091695;28;20120;-74
2021/01/09 08:38:06;;;;;;;92.88;49.90;;;;;;;-0.21;84.98;98230.69;5091208;28;20048;-74
2021/01/09 08:40:33;;;;;;;94.75;50.17;;;;;;;-0.32;85.48;98238.69;5091587;28;20044;-74
2021/01/09 08:43:10;;;;;;;87.05;48.83;;;;;;;-0.26;84.79;98241.13;5087527;28;20395;-71
2021/01/09 08:45:46;;;;;;;88.28;46.30;;;;;;;-0.26;84.28;98240.28;5086029;28;20466;-73
2021/01/09 08:48:21;;;;;;;92.88;49.15;;;;;;;-0.33;85.85;98238.72;5091002;28;20143;-74
2021/01/09 08:51:04;;;;;;;100.03;52.33;;;;;;;-0.40;87.54;98238.88;5092007;28;20403;-75
2021/01/09 08:53:55;;;;;;;88.85;49.05;;;;;;;-0.32;86.34;98245.59;5091426;28;20432;-73
2021/01/09 08:56:22;;;;;;;84.40;45.95;;;;;;;-0.22;84.72;98240.16;5092986;28;20483;-74
2021/01/09 08:58:49;;;;;;;91.60;51.40;;;;;;;-0.27;86.72;98252.28;5094991;28;20399;-74
2021/01/09 09:01:21;;;;;;;88.40;47.67;;;;;;;0.10;83.97;98250.50;5094643;28;20040;-74
2021/01/09 09:03:52;;;;;;;89.55;48.55;;;;;;;-0.10;84.98;98251.88;5095149;28;20044;-74
2021/01/09 09:06:22;;;;;;;83.10;45.55;;;;;;;-0.24;84.52;98248.81;5094360;28;20505;-74
2021/01/09 09:08:48;;;;;;;90.97;49.10;;;;;;;-0.05;85.27;98238.84;5093905;28;20040;-74
2021/01/09 09:11:15;;;;;;;87.47;46.78;;;;;;;-0.32;86.91;98255.88;5093420;28;20079;-74
2021/01/09 09:13:42;;;;;;;97.45;48.97;;;;;;;-0.28;86.72;98252.34;5095165;28;20380;-74
2021/01/09 09:16:19;;;;;;;101.95;52.22;;;;;;;-0.25;87.21;98244.53;5089789;28;20064;-74
2021/01/09 09:18:46;;;;;;;101.55;50.15;;;;;;;-0.13;86.09;98243.38;5074605;28;20468;-75
2021/01/09 09:21:12;;;;;;;81.60;43.80;;;;;;;-0.11;86.66;98239.88;5088115;28;20056;-73
2021/01/09 09:23:38;;;;;;;92.55;44.80;;;;;;;-0.20;86.52;98240.97;5094676;28;20042;-74
2021/01/09 09:26:05;;;;;;;77.63;39.60;;;;;;;-0.32;85.97;98243.84;5089930;28;20096;-73
2021/01/09 09:28:42;;;;;;;77.22;38.67;;;;;;;-0.28;85.95;98227.44;5094299;28;20036;-71
2021/01/09 09:31:22;;;;;;;76.95;39.47;;;;;;;-0.30;85.76;98231.75;5093688;28;20047;-73
2021/01/09 09:34:26;;;;;;;71.45;38.75;;;;;;;-0.31;86.38;98250.69;5094409;28;20430;-75
2021/01/09 09:36:52;;;;;;;76.63;40.67;;;;;;;-0.48;88.00;98243.38;5072934;28;20049;-73
2021/01/09 09:39:20;;;;;;;70.95;37.80;;;;;;;-0.35;86.50;98241.34;5082381;28;20079;-73
2021/01/09 09:41:56;;;;;;;73.95;37.50;;;;;;;-0.34;85.90;98242.19;5091381;28;20042;-74
2021/01/09 09:44:43;;;;;;;69.47;35.95;;;;;;;-0.40;86.31;98243.19;5091888;28;20045;-73
2021/01/09 09:47:11;;;;;;;74.53;39.58;;;;;;;-0.29;87.09;98245.50;5082362;28;20048;-73
2021/01/09 09:49:42;;;;;;;68.72;36.92;;;;;;;-0.32;86.40;98245.59;5094165;28;20063;-74
2021/01/09 09:52:18;;;;;;;73.72;38.85;;;;;;;-0.35;88.67;98249.06;5092948;28;20123;-73
2021/01/09 09:54:46;;;;;;;70.47;36.85;;;;;;;-0.51;88.47;98245.16;5091519;28;20399;-74
2021/01/09 09:57:22;;;;;;;70.45;36.17;;;;;;;-0.31;86.81;98247.25;5093035;28;20051;-72
2021/01/09 10:00:08;;;;;;;64.32;35.25;;;;;;;-0.16;86.93;98244.28;5092593;28;20067;-72
2021/01/09 10:02:34;;;;;;;73.88;38.80;;;;;;;-0.33;87.26;98246.47;5092398;28;20106;-72
2021/01/09 10:05:21;;;;;;;73.70;37.25;;;;;;;-0.38;86.47;98241.44;5093638;28;20036;-76
2021/01/09 10:07:47;;;;;;;78.47;41.55;;;;;;;-0.39;87.79;98243.16;5092238;28;20560;-72
2021/01/09 10:10:17;;;;;;;77.75;44.58;;;;;;;-0.35;87.29;98243.09;5092477;28;20048;-74
2021/01/09 10:12:57;;;;;;;89.32;49.85;;;;;;;-0.36;87.16;98244.78;5093959;28;20471;-73
2021/01/09 10:15:23;;;;;;;92.00;50.42;;;;;;;-0.26;86.95;98248.00;5090496;28;20046;-75
2021/01/09 10:17:57;;;;;;;98.82;53.13;;;;;;;-0.43;87.37;98245.84;5093234;28;20048;-74
2021/01/09 10:20:23;;;;;;;106.57;55.75;;;;;;;-0.26;88.01;98237.69;5091887;28;20322;-71
2021/01/09 10:22:49;;;;;;;97.65;52.55;;;;;;;-0.48;88.67;98245.97;5093695;28;20043;-72
2021/01/09 10:25:16;;;;;;;94.97;51.63;;;;;;;-0.43;88.79;98244.13;5093450;28;20089;-74
2021/01/09 10:27:42;;;;;;;92.18;48.58;;;;;;;-0.24;87.20;98238.50;5093209;28;20078;-74
2021/01/09 10:30:08;;;;;;;94.43;49.22;;;;;;;-0.32;87.37;98238.69;5092175;28;20044;-74
2021/01/09 10:32:34;;;;;;;83.38;47.50;;;;;;;-0.37;87.72;98236.22;5093339;28;20048;-73
2021/01/09 10:35:00;;;;;;;92.05;50.08;;;;;;;-0.38;88.22;98236.28;5092168;28;20051;-72
2021/01/09 10:37:26;;;;;;;90.22;48.72;;;;;;;-0.42;87.97;98235.50;5091299;28;20066;-73
2021/01/09 10:39:52;;;;;;;102.15;50.55;;;;;;;-0.40;89.03;98238.88;5093241;28;20409;-72
2021/01/09 10:42:18;;;;;;;104.97;53.42;;;;;;;-0.38;89.45;98242.25;5090896;28;20116;-74
2021/01/09 10:44:43;;;;;;;96.97;49.58;;;;;;;-0.21;87.94;98234.09;5092753;28;20054;-72
2021/01/09 10:47:09;;;;;;;96.20;48.28;;;;;;;-0.24;88.23;98235.94;5092180;28;20131;-72
2021/01/09 10:49:35;;;;;;;97.60;48.90;;;;;;;-0.27;87.96;98238.56;5091510;28;20090;-73
2021/01/09 10:52:01;;;;;;;97.60;49.47;;;;;;;-0.39;88.49;98237.16;5092941;28;20067;-70
2021/01/09 10:54:26;;;;;;;97.22;49.20;;;;;;;-0.30;88.51;98230.94;5092171;28;20713;-71
2021/01/09 10:56:52;;;;;;;102.22;48.78;;;;;;;-0.32;88.43;98235.28;5092157;28;20504;-71
2021/01/09 10:59:18;;;;;;;101.13;51.45;;;;;;;-0.16;89.06;98236.56;5091704;28;20047;-70
2021/01/09 11:01:44;;;;;;;106.25;51.65;;;;;;;-0.26;89.44;98232.56;5092328;28;20052;-71
2021/01/09 11:04:09;;;;;;;103.97;51.80;;;;;;;-0.48;89.61;98239.94;5092287;28;20040;-71
2021/01/09 11:06:35;;;;;;;105.45;53.03;;;;;;;-0.30;88.68;98239.50;5091928;28;20051;-74
2021/01/09 11:09:01;;;;;;;106.82;51.70;;;;;;;-0.25;89.04;98232.50;5108116;28;20078;-73
2021/01/09 11:11:27;;;;;;;101.18;50.60;;;;;;;-0.40;89.89;98240.63;5091897;28;20338;-74
2021/01/09 11:13:53;;;;;;;100.45;51.65;;;;;;;-0.44;89.73;98237.25;5087690;28;20044;-74
2021/01/09 11:16:19;;;;;;;99.85;48.83;;;;;;;-0.44;90.81;98232.09;5084904;28;20074;-74
2021/01/09 11:18:46;;;;;;;92.68;48.00;;;;;;;-0.37;90.27;98233.66;5091445;28;20740;-74
2021/01/09 11:21:12;;;;;;;99.85;50.78;;;;;;;-0.28;90.07;98236.88;5104804;28;20139;-74